Time;durP1;ratioP1;P1;durP2;ratioP2;P2;SDS_P1;SDS_P2;PMS_P1;PMS_P2;Temp;Humidity;BMP_temperature;BMP_pressure;BME280_temperature;BME280_humidity;BME280_pressure;Samples;Min_cycle;Max_cycle;Signal;HPM_P1;HPM_P2
2022/07/31 00:01:40;;;;;;;7.25;2.67;;;22.90;63.50;;;;;;5039556;28;20059;-77
2022/07/31 00:04:05;;;;;;;5.10;2.42;;;22.80;64.00;;;;;;5036192;28;20029;-78
2022/07/31 00:06:31;;;;;;;4.25;2.15;;;22.80;63.50;;;;;;5035531;28;20384;-78
2022/07/31 00:08:57;;;;;;;4.13;2.35;;;22.80;63.80;;;;;;5046998;28;20037;-78
2022/07/31 00:11:22;;;;;;;4.43;2.63;;;22.80;64.00;;;;;;5054488;28;20559;-78
2022/07/31 00:13:48;;;;;;;4.53;2.45;;;22.70;63.90;;;;;;5055682;28;20033;-77
2022/07/31 00:16:14;;;;;;;4.47;2.30;;;22.80;63.70;;;;;;5045851;28;20056;-78
2022/07/31 00:18:42;;;;;;;3.95;2.45;;;22.80;63.80;;;;;;5050118;28;20053;-78
2022/07/31 00:21:08;;;;;;;3.42;2.13;;;22.80;63.90;;;;;;5055415;28;20050;-78
2022/07/31 00:23:33;;;;;;;3.78;2.47;;;22.80;63.90;;;;;;5054501;28;20527;-78
2022/07/31 00:25:59;;;;;;;4.85;2.50;;;22.80;63.60;;;;;;5043517;28;20025;-78
2022/07/31 00:28:24;;;;;;;4.18;2.60;;;22.80;63.30;;;;;;5035510;28;20040;-78
2022/07/31 00:30:50;;;;;;;4.43;2.25;;;22.80;63.60;;;;;;5035384;28;20036;-78
2022/07/31 00:33:16;;;;;;;3.70;2.53;;;22.80;63.50;;;;;;5035511;28;20519;-77
2022/07/31 00:35:41;;;;;;;4.55;2.47;;;22.80;63.20;;;;;;5035589;28;20029;-77
2022/07/31 00:38:09;;;;;;;3.95;2.45;;;22.70;63.70;;;;;;5035465;28;20035;-77
2022/07/31 00:40:35;;;;;;;4.47;2.63;;;22.70;63.60;;;;;;5035409;28;20373;-77
2022/07/31 00:43:01;;;;;;;3.22;2.25;;;22.70;63.60;;;;;;5035257;28;20040;-77
2022/07/31 00:45:27;;;;;;;3.30;2.28;;;22.70;63.70;;;;;;5035347;28;20476;-78
2022/07/31 00:47:52;;;;;;;3.28;2.00;;;22.70;63.50;;;;;;5035275;28;20480;-78
2022/07/31 00:50:18;;;;;;;5.05;2.60;;;22.70;63.70;;;;;;5034247;28;20029;-77
2022/07/31 00:52:46;;;;;;;4.30;2.70;;;22.70;63.50;;;;;;5035389;28;20029;-78
2022/07/31 00:55:12;;;;;;;3.47;2.15;;;22.60;63.40;;;;;;5035346;28;20026;-77
2022/07/31 00:57:38;;;;;;;4.70;2.53;;;22.70;63.40;;;;;;5035548;28;20498;-78
2022/07/31 01:00:04;;;;;;;5.28;2.72;;;22.70;63.70;;;;;;5039138;28;20128;-78
2022/07/31 01:02:30;;;;;;;4.13;2.28;;;22.60;63.80;;;;;;5052234;28;20088;-78
2022/07/31 01:04:56;;;;;;;3.80;2.63;;;22.60;63.90;;;;;;5035196;28;20585;-77
2022/07/31 01:07:21;;;;;;;5.25;2.42;;;22.60;63.60;;;;;;5045665;28;20047;-78
2022/07/31 01:09:55;;;;;;;6.15;2.60;;;22.60;63.50;;;;;;5055112;28;20055;-78
2022/07/31 01:12:28;;;;;;;4.28;2.65;;;22.50;63.40;;;;;;5037164;28;20021;-78
2022/07/31 01:14:58;;;;;;;4.22;2.55;;;22.50;63.60;;;;;;5035182;28;20047;-77
2022/07/31 01:17:29;;;;;;;4.03;2.40;;;22.50;63.40;;;;;;5040898;28;20029;-77
2022/07/31 01:19:55;;;;;;;3.97;2.42;;;22.50;63.50;;;;;;5046473;28;20072;-77
2022/07/31 01:23:11;;;;;;;4.45;2.72;;;22.50;63.20;;;;;;5037822;28;20140;-78
2022/07/31 01:25:48;;;;;;;6.63;3.20;;;22.50;63.20;;;;;;5036632;28;20049;-78
2022/07/31 01:28:41;;;;;;;4.22;2.35;;;22.50;63.60;;;;;;5048622;28;20033;-78
2022/07/31 01:31:10;;;;;;;6.35;2.70;;;22.40;63.50;;;;;;5058575;28;20033;-78
2022/07/31 01:33:48;;;;;;;3.05;2.20;;;22.40;63.50;;;;;;5057589;28;20055;-78
2022/07/31 01:36:23;;;;;;;3.38;2.33;;;22.40;63.60;;;;;;5053587;28;20025;-77
2022/07/31 01:38:52;;;;;;;4.90;2.97;;;22.30;64.10;;;;;;5038646;28;20037;-78
2022/07/31 01:41:23;;;;;;;6.63;2.63;;;22.40;64.10;;;;;;5038396;28;20472;-78
2022/07/31 01:43:56;;;;;;;3.15;2.38;;;22.40;64.00;;;;;;5043098;28;20024;-77
2022/07/31 01:46:25;;;;;;;3.83;2.42;;;22.40;63.70;;;;;;5057324;28;20025;-77
2022/07/31 01:48:54;;;;;;;4.63;2.30;;;22.40;63.80;;;;;;5058325;28;20557;-78
2022/07/31 01:51:22;;;;;;;3.77;2.83;;;22.40;64.00;;;;;;5057284;28;20036;-78
2022/07/31 01:53:49;;;;;;;4.63;3.40;;;22.30;63.80;;;;;;5037258;28;20064;-77
2022/07/31 01:56:18;;;;;;;4.13;2.60;;;22.30;63.80;;;;;;5038329;28;20037;-78
2022/07/31 01:58:46;;;;;;;5.43;3.28;;;22.30;64.10;;;;;;5038203;28;20362;-78
2022/07/31 02:01:18;;;;;;;4.18;2.50;;;22.30;64.10;;;;;;5050953;28;20068;-78
2022/07/31 02:03:45;;;;;;;4.93;3.17;;;22.30;63.60;;;;;;5052783;28;20432;-78
2022/07/31 02:06:13;;;;;;;4.55;2.60;;;22.40;63.60;;;;;;5036649;28;20065;-77
2022/07/31 02:08:40;;;;;;;5.55;3.08;;;22.30;64.10;;;;;;5036592;28;20029;-78
2022/07/31 02:11:07;;;;;;;4.18;2.53;;;22.30;64.10;;;;;;5037934;28;20030;-78
2022/07/31 02:13:34;;;;;;;3.97;2.50;;;22.30;64.30;;;;;;5037769;28;20029;-77
2022/07/31 02:16:01;;;;;;;6.15;2.97;;;22.20;64.30;;;;;;5038030;28;20119;-78
2022/07/31 02:18:29;;;;;;;4.93;2.72;;;22.20;64.40;;;;;;5048425;28;20059;-77
2022/07/31 02:20:56;;;;;;;3.85;2.83;;;22.10;64.30;;;;;;5037608;28;20041;-77
2022/07/31 02:23:22;;;;;;;4.63;2.42;;;22.10;64.20;;;;;;5037708;28;20036;-78
2022/07/31 02:25:47;;;;;;;6.32;3.20;;;22.10;64.20;;;;;;5037518;28;20025;-78
2022/07/31 02:28:19;;;;;;;4.05;2.67;;;22.10;64.20;;;;;;5037513;28;20099;-77
2022/07/31 02:30:47;;;;;;;4.28;3.03;;;22.00;64.20;;;;;;5037212;28;20022;-77
2022/07/31 02:33:22;;;;;;;5.05;2.72;;;22.00;64.30;;;;;;5037335;28;20060;-77
2022/07/31 02:35:51;;;;;;;4.72;3.00;;;22.00;64.30;;;;;;5036479;28;20120;-77
2022/07/31 02:38:19;;;;;;;4.93;2.72;;;22.00;64.00;;;;;;5037431;28;20052;-77
2022/07/31 02:40:49;;;;;;;7.65;3.30;;;22.00;64.30;;;;;;5037363;28;20025;-77
2022/07/31 02:43:15;;;;;;;5.63;2.77;;;22.00;63.90;;;;;;5037132;28;20018;-78
2022/07/31 02:45:42;;;;;;;4.40;2.85;;;22.00;64.10;;;;;;5037312;28;20260;-77
2022/07/31 02:48:08;;;;;;;5.10;2.72;;;22.00;64.30;;;;;;5037327;28;20421;-77
2022/07/31 02:50:35;;;;;;;5.50;3.08;;;22.00;64.10;;;;;;5037109;28;20041;-77
2022/07/31 02:53:00;;;;;;;5.00;2.75;;;22.00;64.30;;;;;;5037210;28;20025;-77
2022/07/31 02:55:26;;;;;;;5.22;2.63;;;21.90;64.10;;;;;;5036951;28;20087;-78
2022/07/31 02:57:54;;;;;;;4.85;2.80;;;22.00;64.20;;;;;;5037014;28;20028;-77
2022/07/31 03:00:25;;;;;;;5.97;3.25;;;21.90;64.30;;;;;;5042721;28;20028;-77
2022/07/31 03:02:55;;;;;;;4.07;2.88;;;21.90;64.40;;;;;;5056828;28;20081;-77
2022/07/31 03:05:21;;;;;;;5.10;3.05;;;21.90;64.30;;;;;;5056851;28;20021;-78
2022/07/31 03:07:46;;;;;;;5.43;2.90;;;21.90;64.20;;;;;;5039576;28;20117;-77
2022/07/31 03:10:12;;;;;;;4.07;2.97;;;21.90;63.90;;;;;;5036882;28;20033;-77
2022/07/31 03:12:51;;;;;;;6.28;2.83;;;21.90;63.80;;;;;;5035513;28;20029;-77
2022/07/31 03:15:22;;;;;;;6.28;2.97;;;21.80;64.60;;;;;;5040182;28;20543;-77
2022/07/31 03:17:48;;;;;;;8.32;3.05;;;21.80;64.50;;;;;;5055321;28;20391;-77
2022/07/31 03:20:15;;;;;;;10.00;3.50;;;21.90;64.10;;;;;;5055388;28;20553;-78
2022/07/31 03:22:42;;;;;;;6.53;3.38;;;21.80;64.40;;;;;;5040779;28;20030;-77
2022/07/31 03:25:08;;;;;;;4.50;3.15;;;21.80;64.10;;;;;;5036488;28;20025;-77
2022/07/31 03:27:34;;;;;;;5.30;2.90;;;21.80;64.50;;;;;;5036268;28;20025;-77
2022/07/31 03:30:00;;;;;;;4.47;2.97;;;21.80;64.40;;;;;;5036694;28;20036;-78
2022/07/31 03:32:29;;;;;;;5.40;3.05;;;21.80;64.30;;;;;;5036324;28;20055;-77
2022/07/31 03:34:54;;;;;;;4.93;3.07;;;21.80;64.30;;;;;;5047915;28;20025;-77
2022/07/31 03:37:20;;;;;;;7.20;3.00;;;21.80;64.40;;;;;;5056224;28;20067;-77
2022/07/31 03:39:46;;;;;;;7.28;3.00;;;21.80;64.60;;;;;;5048891;28;20033;-77
2022/07/31 03:42:13;;;;;;;5.35;3.47;;;21.80;64.60;;;;;;5043898;28;20025;-77
2022/07/31 03:44:40;;;;;;;4.43;3.05;;;21.80;64.80;;;;;;5035242;28;20164;-77
2022/07/31 03:47:07;;;;;;;7.30;3.15;;;21.80;64.80;;;;;;5036150;28;20026;-77
2022/07/31 03:49:33;;;;;;;4.85;3.25;;;21.70;65.20;;;;;;5034860;28;20385;-77
2022/07/31 03:51:59;;;;;;;4.78;3.03;;;21.70;64.60;;;;;;5036085;28;20039;-77
2022/07/31 03:54:25;;;;;;;4.50;3.13;;;21.70;65.10;;;;;;5034692;28;20367;-77
2022/07/31 03:56:52;;;;;;;3.97;2.78;;;21.70;65.30;;;;;;5036039;28;20029;-77
2022/07/31 03:59:18;;;;;;;4.25;2.60;;;21.70;65.10;;;;;;5035952;28;20026;-77
2022/07/31 04:01:44;;;;;;;7.72;2.90;;;21.70;65.80;;;;;;5047297;28;20029;-77
2022/07/31 04:04:10;;;;;;;4.57;2.78;;;21.70;65.00;;;;;;5036171;28;20025;-77
2022/07/31 04:06:39;;;;;;;4.53;3.10;;;21.70;65.50;;;;;;5035813;28;20026;-77
2022/07/31 04:09:05;;;;;;;5.20;3.10;;;21.70;65.40;;;;;;5035591;28;20029;-77
2022/07/31 04:11:31;;;;;;;5.10;2.95;;;21.70;65.00;;;;;;5036081;28;20060;-77
2022/07/31 04:13:57;;;;;;;5.05;2.83;;;21.70;65.50;;;;;;5034715;28;20025;-77
2022/07/31 04:16:22;;;;;;;6.30;3.10;;;21.70;65.10;;;;;;5035854;28;20045;-77
2022/07/31 04:18:48;;;;;;;5.60;2.67;;;21.70;65.20;;;;;;5053872;28;20048;-77
2022/07/31 04:21:14;;;;;;;4.47;2.78;;;21.70;65.00;;;;;;5054419;28;20033;-77
2022/07/31 04:23:42;;;;;;;3.90;2.88;;;21.70;64.80;;;;;;5038230;28;20052;-77
2022/07/31 04:26:08;;;;;;;3.78;2.65;;;21.60;65.30;;;;;;5035569;28;20064;-77
2022/07/31 04:28:34;;;;;;;5.43;3.15;;;21.60;65.50;;;;;;5035583;28;20025;-76
2022/07/31 04:30:59;;;;;;;5.13;2.58;;;21.60;65.40;;;;;;5035411;28;20108;-77
2022/07/31 04:33:25;;;;;;;3.92;3.08;;;21.60;65.30;;;;;;5035582;28;20021;-77
2022/07/31 04:35:51;;;;;;;8.02;3.10;;;21.70;64.90;;;;;;5035538;28;20116;-77
2022/07/31 04:38:17;;;;;;;4.82;3.17;;;21.60;65.20;;;;;;5034054;28;20369;-77
2022/07/31 04:40:47;;;;;;;3.90;2.90;;;21.70;64.80;;;;;;5035339;28;20040;-77
2022/07/31 04:43:12;;;;;;;4.90;3.00;;;21.60;64.80;;;;;;5035325;28;20444;-77
2022/07/31 04:45:38;;;;;;;6.32;3.22;;;21.60;64.90;;;;;;5035340;28;20114;-77
2022/07/31 04:48:04;;;;;;;5.10;2.90;;;21.60;64.70;;;;;;5038607;28;20082;-77
2022/07/31 04:50:30;;;;;;;5.18;3.33;;;21.50;65.30;;;;;;5055190;28;20040;-77
2022/07/31 04:52:55;;;;;;;4.72;3.40;;;21.60;65.10;;;;;;5055480;28;20029;-77
2022/07/31 04:55:21;;;;;;;4.93;3.42;;;21.60;65.20;;;;;;5038290;28;20484;-77
2022/07/31 04:57:47;;;;;;;5.65;3.28;;;21.60;64.80;;;;;;5039268;28;20026;-77
2022/07/31 05:00:13;;;;;;;4.38;3.13;;;21.60;65.10;;;;;;5040155;28;20076;-77
2022/07/31 05:02:39;;;;;;;5.68;3.10;;;21.50;65.10;;;;;;5039182;28;20029;-77
2022/07/31 05:05:05;;;;;;;5.35;3.50;;;21.50;65.60;;;;;;5038205;28;20030;-77
2022/07/31 05:07:31;;;;;;;7.07;3.20;;;21.50;65.40;;;;;;5039185;28;20032;-77
2022/07/31 05:09:57;;;;;;;5.63;3.10;;;21.50;65.30;;;;;;5037819;28;20036;-77
2022/07/31 05:12:23;;;;;;;4.85;3.03;;;21.50;65.10;;;;;;5039062;28;20029;-77
2022/07/31 05:14:48;;;;;;;5.65;3.05;;;21.50;65.30;;;;;;5039169;28;20029;-77
2022/07/31 05:17:14;;;;;;;6.53;3.70;;;21.50;65.90;;;;;;5044168;28;20029;-77
2022/07/31 05:19:40;;;;;;;5.30;3.45;;;21.40;65.40;;;;;;5056625;28;20144;-77
2022/07/31 05:22:05;;;;;;;5.22;2.47;;;21.40;66.30;;;;;;5038738;28;20068;-77
2022/07/31 05:24:31;;;;;;;8.00;2.55;;;21.40;66.00;;;;;;5039027;28;20068;-77
2022/07/31 05:26:57;;;;;;;5.55;3.17;;;21.40;65.90;;;;;;5038815;28;20013;-77
2022/07/31 05:29:22;;;;;;;5.43;3.42;;;21.50;65.40;;;;;;5055819;28;20032;-77
2022/07/31 05:31:48;;;;;;;5.03;3.17;;;21.50;65.40;;;;;;5053275;28;20029;-77
2022/07/31 05:34:14;;;;;;;5.53;3.08;;;21.60;65.70;;;;;;5038626;28;20036;-77
2022/07/31 05:36:39;;;;;;;4.55;2.80;;;21.60;65.20;;;;;;5038692;28;20032;-77
2022/07/31 05:39:05;;;;;;;5.53;3.10;;;21.60;65.30;;;;;;5038611;28;20064;-77
2022/07/31 05:41:32;;;;;;;6.05;3.67;;;21.60;65.30;;;;;;5038245;28;20021;-77
2022/07/31 05:43:58;;;;;;;7.10;3.38;;;21.60;65.30;;;;;;5038478;28;20025;-77
2022/07/31 05:46:24;;;;;;;6.28;4.05;;;21.60;65.00;;;;;;5037413;28;20080;-77
2022/07/31 05:48:50;;;;;;;5.95;3.45;;;21.60;65.50;;;;;;5037302;28;20032;-77
2022/07/31 05:51:16;;;;;;;4.95;3.10;;;21.60;65.00;;;;;;5052608;28;20036;-77
2022/07/31 05:53:41;;;;;;;5.03;3.42;;;21.60;65.60;;;;;;5056921;28;20461;-77
2022/07/31 05:56:07;;;;;;;6.85;3.80;;;21.60;66.30;;;;;;5058214;28;20078;-77
2022/07/31 05:58:33;;;;;;;6.60;3.33;;;21.50;66.50;;;;;;5051088;28;20511;-77
2022/07/31 06:00:59;;;;;;;4.95;3.10;;;21.50;65.60;;;;;;5049368;28;20040;-77
2022/07/31 06:03:28;;;;;;;5.05;2.92;;;21.50;66.10;;;;;;5056310;28;20025;-77
2022/07/31 06:05:55;;;;;;;6.07;3.00;;;21.60;66.10;;;;;;5056733;28;20028;-77
2022/07/31 06:08:21;;;;;;;5.57;3.10;;;21.60;66.20;;;;;;5057951;28;20028;-77
2022/07/31 06:10:47;;;;;;;4.70;3.35;;;21.60;66.10;;;;;;5050488;28;20026;-77
2022/07/31 06:13:13;;;;;;;4.40;2.90;;;21.70;65.60;;;;;;5037895;28;20041;-77
2022/07/31 06:15:40;;;;;;;5.60;3.45;;;21.80;65.40;;;;;;5036682;28;20545;-77
2022/07/31 06:18:06;;;;;;;5.85;2.92;;;21.80;65.40;;;;;;5057275;28;20067;-77
2022/07/31 06:20:32;;;;;;;4.18;2.45;;;21.80;65.50;;;;;;5057616;28;20111;-77
2022/07/31 06:22:58;;;;;;;7.38;3.70;;;21.80;65.70;;;;;;5057969;28;20025;-77
2022/07/31 06:25:23;;;;;;;5.03;3.35;;;21.80;65.10;;;;;;5038161;28;20021;-77
2022/07/31 06:27:49;;;;;;;4.40;2.97;;;21.80;64.90;;;;;;5036472;28;20072;-77
2022/07/31 06:30:15;;;;;;;5.20;3.28;;;21.80;64.80;;;;;;5036317;28;20430;-77
2022/07/31 06:32:41;;;;;;;6.13;3.42;;;21.80;65.10;;;;;;5050144;28;20033;-77
2022/07/31 06:35:07;;;;;;;6.30;3.25;;;21.90;64.70;;;;;;5057512;28;20079;-77
2022/07/31 06:37:33;;;;;;;6.78;3.47;;;21.90;64.90;;;;;;5057644;28;20032;-77
2022/07/31 06:39:59;;;;;;;8.18;3.50;;;22.00;64.60;;;;;;5057307;28;20021;-77
2022/07/31 06:42:25;;;;;;;3.90;2.80;;;22.00;64.30;;;;;;5042427;28;20030;-77
2022/07/31 06:44:52;;;;;;;6.72;3.40;;;22.00;64.70;;;;;;5037337;28;20014;-77
2022/07/31 06:47:22;;;;;;;4.07;3.10;;;22.00;64.50;;;;;;5037363;28;20029;-77
2022/07/31 06:49:48;;;;;;;4.80;3.17;;;22.00;64.50;;;;;;5037247;28;20029;-77
2022/07/31 06:52:33;;;;;;;4.68;2.72;;;22.00;64.80;;;;;;5037105;28;20045;-76
2022/07/31 06:55:00;;;;;;;4.07;2.90;;;22.00;64.80;;;;;;5037439;28;20880;-77
2022/07/31 06:57:26;;;;;;;7.47;2.75;;;22.10;64.80;;;;;;5036917;28;20033;-77
2022/07/31 06:59:51;;;;;;;5.53;3.58;;;22.20;64.40;;;;;;5038977;28;20029;-77
2022/07/31 07:02:17;;;;;;;4.82;2.97;;;22.20;64.40;;;;;;5044554;28;20094;-77
2022/07/31 07:04:43;;;;;;;4.05;2.65;;;22.30;64.00;;;;;;5037001;28;20028;-77
2022/07/31 07:07:08;;;;;;;4.40;2.85;;;22.20;64.40;;;;;;5036936;28;20022;-77
2022/07/31 07:09:34;;;;;;;5.10;2.80;;;22.10;64.80;;;;;;5037170;28;20025;-77
2022/07/31 07:12:00;;;;;;;5.45;3.10;;;22.20;64.80;;;;;;5052423;28;20545;-77
2022/07/31 07:14:25;;;;;;;5.68;3.60;;;22.20;64.70;;;;;;5050197;28;20025;-77
2022/07/31 07:16:51;;;;;;;5.75;3.15;;;22.30;64.20;;;;;;5037861;28;20026;-77
2022/07/31 07:19:17;;;;;;;4.07;2.67;;;22.30;64.30;;;;;;5055301;28;20049;-77
2022/07/31 07:21:43;;;;;;;5.25;3.42;;;22.30;64.10;;;;;;5056529;28;20102;-77
2022/07/31 07:24:08;;;;;;;5.07;3.05;;;22.30;64.10;;;;;;5049025;28;20096;-77
2022/07/31 07:26:34;;;;;;;5.55;3.22;;;22.30;64.00;;;;;;5036608;28;20034;-77
2022/07/31 07:29:01;;;;;;;4.55;2.90;;;22.40;64.00;;;;;;5035339;28;20029;-77
2022/07/31 07:31:27;;;;;;;3.92;2.67;;;22.40;63.70;;;;;;5036492;28;20033;-77
2022/07/31 07:33:54;;;;;;;4.55;2.78;;;22.60;63.30;;;;;;5035526;28;20033;-76
2022/07/31 07:36:20;;;;;;;5.57;2.72;;;22.60;63.50;;;;;;5036448;28;20037;-78
2022/07/31 07:38:46;;;;;;;5.40;3.88;;;22.60;63.10;;;;;;5036328;28;20393;-78
2022/07/31 07:41:12;;;;;;;4.90;3.17;;;22.60;63.50;;;;;;5052758;28;20035;-78
2022/07/31 07:43:38;;;;;;;5.22;3.15;;;22.60;63.20;;;;;;5056092;28;20036;-79
2022/07/31 07:46:03;;;;;;;5.13;3.20;;;22.60;63.10;;;;;;5056225;28;20028;-78
2022/07/31 07:48:29;;;;;;;4.57;2.95;;;22.60;63.20;;;;;;5053307;28;20028;-78
2022/07/31 07:50:55;;;;;;;5.38;2.97;;;22.70;62.80;;;;;;5036314;28;20037;-78
2022/07/31 07:53:20;;;;;;;4.53;2.78;;;22.80;62.40;;;;;;5034732;28;20033;-78
2022/07/31 07:55:46;;;;;;;5.05;3.22;;;22.80;62.20;;;;;;5036195;28;20510;-78
2022/07/31 07:58:11;;;;;;;5.78;3.13;;;23.00;61.80;;;;;;5035778;28;20026;-78
2022/07/31 08:00:37;;;;;;;5.68;3.00;;;23.00;61.60;;;;;;5043153;28;20064;-78
2022/07/31 08:03:03;;;;;;;5.60;3.30;;;23.10;61.40;;;;;;5055858;28;20063;-78
2022/07/31 08:05:29;;;;;;;4.72;2.95;;;23.20;61.20;;;;;;5036061;28;20026;-78
2022/07/31 08:07:54;;;;;;;4.75;2.80;;;23.10;61.20;;;;;;5040045;28;20025;-78
2022/07/31 08:10:20;;;;;;;5.47;3.28;;;23.10;61.10;;;;;;5055885;28;20040;-78
2022/07/31 08:12:46;;;;;;;5.20;3.08;;;23.20;61.50;;;;;;5045036;28;20526;-78
2022/07/31 08:15:12;;;;;;;4.47;3.00;;;23.20;61.10;;;;;;5035850;28;20030;-78
2022/07/31 08:17:37;;;;;;;5.40;3.60;;;23.20;61.20;;;;;;5044005;28;20029;-78
2022/07/31 08:20:04;;;;;;;4.97;2.83;;;23.20;61.20;;;;;;5055765;28;20094;-78
2022/07/31 08:22:30;;;;;;;6.63;3.15;;;23.20;61.30;;;;;;5039199;28;20025;-77
2022/07/31 08:24:56;;;;;;;4.70;3.33;;;23.20;60.90;;;;;;5034710;28;20067;-78
2022/07/31 08:27:24;;;;;;;5.00;3.10;;;23.30;60.90;;;;;;5033959;28;20451;-78
2022/07/31 08:29:59;;;;;;;4.93;3.42;;;23.10;61.10;;;;;;5034185;28;20033;-78
2022/07/31 08:32:26;;;;;;;6.07;3.72;;;23.00;61.50;;;;;;5035626;28;20132;-78
2022/07/31 08:34:52;;;;;;;5.32;3.40;;;23.20;61.40;;;;;;5035632;28;20125;-78
2022/07/31 08:37:18;;;;;;;6.65;4.47;;;23.20;61.10;;;;;;5035635;28;20026;-78
2022/07/31 08:39:45;;;;;;;3.63;2.65;;;23.40;60.90;;;;;;5048604;28;20492;-78
2022/07/31 08:42:12;;;;;;;5.55;3.40;;;23.50;60.40;;;;;;5054113;28;20021;-78
2022/07/31 08:44:39;;;;;;;6.63;2.90;;;23.60;59.90;;;;;;5046368;28;20036;-78
2022/07/31 08:47:06;;;;;;;3.65;2.63;;;23.80;59.40;;;;;;5035458;28;20472;-77
2022/07/31 08:49:37;;;;;;;4.97;3.20;;;23.90;59.30;;;;;;5034195;28;20117;-78
2022/07/31 08:52:03;;;;;;;4.07;2.70;;;24.00;58.80;;;;;;5035437;28;20028;-78
2022/07/31 08:54:31;;;;;;;7.75;3.00;;;24.20;58.70;;;;;;5035325;28;20040;-79
2022/07/31 08:56:57;;;;;;;5.57;3.05;;;24.30;58.00;;;;;;5035123;28;20029;-78
2022/07/31 08:59:23;;;;;;;5.47;2.97;;;24.50;57.20;;;;;;5034346;28;20025;-78
2022/07/31 09:01:49;;;;;;;3.80;2.60;;;24.40;57.80;;;;;;5052302;28;20124;-78
2022/07/31 09:04:15;;;;;;;4.90;3.30;;;24.50;57.80;;;;;;5037417;28;20026;-78
2022/07/31 09:06:41;;;;;;;4.30;2.92;;;24.60;57.60;;;;;;5035275;28;20040;-78
2022/07/31 09:09:06;;;;;;;6.80;3.53;;;24.60;57.40;;;;;;5035237;28;20038;-78
2022/07/31 09:11:33;;;;;;;4.68;3.00;;;24.80;56.80;;;;;;5035132;28;20033;-78
2022/07/31 09:14:01;;;;;;;5.22;2.53;;;25.30;55.40;;;;;;5033887;28;20021;-78
2022/07/31 09:16:27;;;;;;;5.25;3.25;;;25.80;54.30;;;;;;5033834;28;20037;-78
2022/07/31 09:18:57;;;;;;;7.35;3.22;;;25.80;53.50;;;;;;5052267;28;20045;-78
2022/07/31 09:21:22;;;;;;;5.10;3.20;;;25.70;53.70;;;;;;5034918;28;20049;-78
2022/07/31 09:23:48;;;;;;;3.85;2.78;;;25.80;53.90;;;;;;5035411;28;20030;-78
2022/07/31 09:26:14;;;;;;;8.15;3.25;;;25.50;53.80;;;;;;5044243;28;20025;-78
2022/07/31 09:28:43;;;;;;;4.05;3.05;;;25.60;53.90;;;;;;5036824;28;20053;-78
2022/07/31 09:31:10;;;;;;;5.05;3.00;;;26.00;53.30;;;;;;5035131;28;20045;-78
2022/07/31 09:33:38;;;;;;;5.50;2.90;;;26.50;52.20;;;;;;5035332;28;20470;-78
2022/07/31 09:36:04;;;;;;;4.82;2.78;;;27.00;50.60;;;;;;5035058;28;20026;-78
2022/07/31 09:38:31;;;;;;;4.65;2.60;;;27.30;50.40;;;;;;5033819;28;20098;-78
2022/07/31 09:41:07;;;;;;;5.30;2.90;;;27.30;49.80;;;;;;5038282;28;20124;-78
2022/07/31 09:43:33;;;;;;;4.53;2.92;;;28.90;48.50;;;;;;5038388;28;20021;-79
2022/07/31 09:46:03;;;;;;;6.28;3.00;;;30.70;43.60;;;;;;5038535;28;20032;-79
2022/07/31 09:48:29;;;;;;;3.97;2.70;;;30.40;43.30;;;;;;5038547;28;20026;-79
2022/07/31 09:51:01;;;;;;;4.05;2.65;;;29.90;43.90;;;;;;5037386;28;20036;-79
2022/07/31 09:53:39;;;;;;;3.80;2.40;;;29.80;44.10;;;;;;5037270;28;20044;-78
2022/07/31 09:56:06;;;;;;;4.10;2.67;;;29.70;44.60;;;;;;5038384;28;20037;-79
2022/07/31 10:01:55;;;;;;;4.88;2.85;;;29.40;44.20;;;;;;5041694;28;20132;-78
2022/07/31 10:04:22;;;;;;;3.75;2.58;;;29.70;44.00;;;;;;5038156;28;20057;-79
2022/07/31 10:06:49;;;;;;;4.85;2.53;;;29.70;44.00;;;;;;5036833;28;20480;-79
2022/07/31 10:09:18;;;;;;;3.38;2.80;;;29.50;44.80;;;;;;5038354;28;20030;-78
2022/07/31 10:11:46;;;;;;;4.95;2.78;;;30.70;42.70;;;;;;5038033;28;20029;-79
2022/07/31 10:14:18;;;;;;;3.42;2.72;;;32.30;39.60;;;;;;5037804;28;20037;-79
2022/07/31 10:16:44;;;;;;;3.03;2.30;;;33.30;37.80;;;;;;5039017;28;20117;-77
2022/07/31 10:19:11;;;;;;;3.17;2.30;;;34.40;36.10;;;;;;5046837;28;20041;-77
2022/07/31 10:21:41;;;;;;;3.45;2.83;;;34.10;35.80;;;;;;5037717;28;20037;-76
2022/07/31 10:24:08;;;;;;;3.20;2.80;;;33.40;37.00;;;;;;5037515;28;20152;-79
2022/07/31 10:26:34;;;;;;;4.07;3.05;;;34.10;35.90;;;;;;5038118;28;20025;-79
2022/07/31 10:29:01;;;;;;;4.03;3.63;;;34.40;34.30;;;;;;5037549;28;20461;-80
2022/07/31 10:31:27;;;;;;;2.60;2.20;;;34.10;35.50;;;;;;5054629;28;20033;-79
2022/07/31 10:33:54;;;;;;;3.22;2.75;;;34.20;35.40;;;;;;5053070;28;20036;-79
2022/07/31 10:36:37;;;;;;;4.97;2.80;;;34.60;35.30;;;;;;5037615;28;20025;-79
2022/07/31 10:39:34;;;;;;;3.28;2.53;;;34.40;35.00;;;;;;5037552;28;20104;-79
2022/07/31 10:42:06;;;;;;;5.78;3.03;;;33.80;35.90;;;;;;5037325;28;20025;-79
2022/07/31 10:45:05;;;;;;;3.92;2.35;;;33.00;37.00;;;;;;5036235;28;20033;-79
2022/07/31 10:47:31;;;;;;;3.95;2.67;;;32.40;37.60;;;;;;5036137;28;20399;-80
2022/07/31 10:49:57;;;;;;;4.35;2.80;;;31.80;39.00;;;;;;5036936;28;20033;-79
2022/07/31 10:52:27;;;;;;;3.38;2.47;;;31.30;39.90;;;;;;5037308;28;20051;-79
2022/07/31 10:54:57;;;;;;;2.60;2.28;;;31.10;40.60;;;;;;5042227;28;20028;-79
2022/07/31 10:57:33;;;;;;;4.22;2.40;;;30.80;41.10;;;;;;5056159;28;20033;-79
2022/07/31 11:00:16;;;;;;;4.95;2.92;;;30.50;41.10;;;;;;5042628;28;20051;-79
2022/07/31 11:02:42;;;;;;;3.25;2.28;;;30.50;41.50;;;;;;5055359;28;20514;-79
2022/07/31 11:05:19;;;;;;;4.43;2.92;;;30.10;42.20;;;;;;5055670;28;20040;-79
2022/07/31 11:07:45;;;;;;;5.07;2.85;;;29.90;43.30;;;;;;5052830;28;20026;-79
2022/07/31 11:10:20;;;;;;;4.25;3.05;;;29.70;43.50;;;;;;5036939;28;20030;-79
2022/07/31 11:13:03;;;;;;;3.33;2.25;;;29.70;43.50;;;;;;5045975;28;20033;-79
2022/07/31 11:15:28;;;;;;;4.82;3.15;;;29.70;43.20;;;;;;5056763;28;20051;-79
2022/07/31 11:17:55;;;;;;;5.63;3.10;;;29.50;43.00;;;;;;5056549;28;20032;-79
2022/07/31 11:20:28;;;;;;;5.80;3.30;;;29.40;44.10;;;;;;5038718;28;20025;-79
2022/07/31 11:22:55;;;;;;;5.18;2.75;;;29.30;43.80;;;;;;5036921;28;20041;-79
2022/07/31 11:25:22;;;;;;;4.40;3.03;;;29.30;43.80;;;;;;5056506;28;20382;-79
2022/07/31 11:27:48;;;;;;;3.92;2.90;;;29.20;44.30;;;;;;5056311;28;20017;-79
2022/07/31 11:30:13;;;;;;;3.78;2.53;;;29.20;43.70;;;;;;5055438;28;20036;-79
2022/07/31 11:32:46;;;;;;;3.30;2.38;;;29.10;44.20;;;;;;5037073;28;20040;-79
2022/07/31 11:35:11;;;;;;;4.00;2.80;;;29.00;44.50;;;;;;5036693;28;20048;-79
2022/07/31 11:37:37;;;;;;;4.07;2.55;;;29.20;43.90;;;;;;5036398;28;20413;-78
2022/07/31 11:40:04;;;;;;;3.50;2.72;;;29.20;44.20;;;;;;5035046;28;20542;-79
2022/07/31 11:42:30;;;;;;;4.25;2.83;;;29.30;43.90;;;;;;5036274;28;20053;-79
2022/07/31 11:45:05;;;;;;;3.83;2.75;;;29.20;43.80;;;;;;5036152;28;20020;-79
2022/07/31 11:47:42;;;;;;;3.38;2.42;;;29.00;43.90;;;;;;5036203;28;20025;-79
2022/07/31 11:50:09;;;;;;;3.65;2.72;;;29.10;43.80;;;;;;5035165;28;20057;-79
2022/07/31 11:52:35;;;;;;;3.83;2.70;;;29.20;43.80;;;;;;5034624;28;20061;-79
2022/07/31 11:55:07;;;;;;;6.50;3.08;;;29.30;44.30;;;;;;5035900;28;20907;-79
2022/07/31 11:57:33;;;;;;;3.88;2.60;;;29.40;43.50;;;;;;5034843;28;20056;-79
2022/07/31 12:00:09;;;;;;;4.40;2.95;;;29.50;42.90;;;;;;5037843;28;20021;-79
2022/07/31 12:02:39;;;;;;;5.25;2.45;;;29.50;43.00;;;;;;5055154;28;20017;-79
2022/07/31 12:05:05;;;;;;;;;;;29.40;42.80;;;;;;5038765;28;20033;-79
2022/07/31 12:07:30;;;;;;;5.13;2.97;;;29.30;42.70;;;;;;5035935;28;20067;-79
2022/07/31 12:09:56;;;;;;;5.65;3.08;;;29.40;43.00;;;;;;5034783;28;20124;-79
2022/07/31 12:12:22;;;;;;;4.20;2.50;;;29.30;41.70;;;;;;5035601;28;20023;-79
2022/07/31 12:14:48;;;;;;;3.83;2.63;;;29.30;42.70;;;;;;5035820;28;20089;-79
2022/07/31 12:17:21;;;;;;;5.28;2.70;;;29.30;42.00;;;;;;5046714;28;20511;-79
2022/07/31 12:19:47;;;;;;;5.53;2.83;;;29.40;42.80;;;;;;5054409;28;20111;-79
2022/07/31 12:22:15;;;;;;;3.50;2.92;;;29.50;42.30;;;;;;5055766;28;20064;-79
2022/07/31 12:24:42;;;;;;;4.55;2.85;;;29.50;42.70;;;;;;5055592;28;20096;-79
2022/07/31 12:27:07;;;;;;;3.92;3.10;;;29.60;42.70;;;;;;5049865;28;20551;-79
2022/07/31 12:29:37;;;;;;;5.50;3.13;;;29.60;41.80;;;;;;5035603;28;20079;-79
2022/07/31 12:32:05;;;;;;;3.88;2.45;;;29.60;41.40;;;;;;5034491;28;20492;-79
2022/07/31 12:34:36;;;;;;;4.88;2.53;;;29.50;41.80;;;;;;5035231;28;20365;-78
2022/07/31 12:37:06;;;;;;;3.75;2.70;;;29.60;41.60;;;;;;5035505;28;20049;-78
2022/07/31 12:39:36;;;;;;;;;;;29.60;41.00;;;;;;5035836;28;20507;-77
2022/07/31 12:42:02;;;;;;;3.15;2.58;;;29.70;40.60;;;;;;5034362;28;19921;-78
2022/07/31 12:44:28;;;;;;;4.10;2.70;;;29.70;40.60;;;;;;5034011;28;20036;-78
2022/07/31 12:46:54;;;;;;;3.65;2.78;;;29.60;40.20;;;;;;5035510;28;20399;-78
2022/07/31 12:49:20;;;;;;;4.68;2.70;;;29.70;41.40;;;;;;5045047;28;20033;-78
2022/07/31 12:51:46;;;;;;;4.18;2.70;;;29.70;40.90;;;;;;5055394;28;20022;-78
2022/07/31 12:54:12;;;;;;;4.72;2.80;;;29.80;39.50;;;;;;5043593;28;20033;-77